Time;durP1;ratioP1;P1;durP2;ratioP2;P2;SDS_P1;SDS_P2;PMS_P1;PMS_P2;Temp;Humidity;BMP_temperature;BMP_pressure;BME280_temperature;BME280_humidity;BME280_pressure;Samples;Min_cycle;Max_cycle;Signal;HPM_P1;HPM_P2
2023/09/19 00:00:33;;;;;;;9.77;9.17;;;16.30;99.90;;;;;;4971751;28;20253;-80
2023/09/19 00:03:00;;;;;;;10.50;9.80;;;16.30;99.90;;;;;;4972097;28;20205;-80
2023/09/19 00:05:29;;;;;;;10.23;9.63;;;16.30;99.90;;;;;;4973172;28;20229;-80
2023/09/19 00:07:59;;;;;;;10.47;9.87;;;16.30;99.90;;;;;;4971983;28;20206;-79
2023/09/19 00:10:26;;;;;;;10.37;9.77;;;16.30;99.90;;;;;;4972295;28;20320;-80
2023/09/19 00:12:55;;;;;;;10.30;9.70;;;16.30;99.90;;;;;;4972042;28;20213;-80
2023/09/19 00:15:21;;;;;;;10.20;9.67;;;16.30;99.90;;;;;;4973181;28;20198;-80
2023/09/19 00:17:48;;;;;;;10.30;9.70;;;16.30;99.90;;;;;;4973099;28;20204;-79
2023/09/19 00:20:17;;;;;;;10.03;9.53;;;16.30;99.90;;;;;;4974596;28;20252;-82
2023/09/19 00:22:45;;;;;;;10.67;10.00;;;16.30;99.90;;;;;;4977092;28;20201;-80
2023/09/19 00:25:15;;;;;;;10.27;9.67;;;16.20;99.90;;;;;;4975377;28;20237;-80
2023/09/19 00:27:43;;;;;;;10.00;9.40;;;16.30;99.90;;;;;;4977090;28;20661;-80
2023/09/19 00:30:14;;;;;;;9.70;9.10;;;16.20;99.90;;;;;;4975541;28;20224;-80
2023/09/19 00:32:41;;;;;;;9.73;9.13;;;16.20;99.90;;;;;;4975551;28;20197;-80
2023/09/19 00:35:10;;;;;;;9.53;9.03;;;16.20;99.90;;;;;;4974792;28;20200;-80
2023/09/19 00:37:37;;;;;;;9.80;9.20;;;16.30;99.90;;;;;;4975458;28;20280;-80
2023/09/19 00:40:09;;;;;;;10.17;9.57;;;16.20;99.90;;;;;;4983435;28;20720;-80
2023/09/19 00:42:37;;;;;;;10.30;9.60;;;16.30;99.90;;;;;;4972053;28;20202;-81
2023/09/19 00:45:05;;;;;;;10.60;9.80;;;16.20;99.90;;;;;;4976061;28;20217;-81
2023/09/19 00:47:32;;;;;;;10.20;9.60;;;16.20;99.90;;;;;;4975703;28;20211;-80
2023/09/19 00:49:59;;;;;;;10.00;9.40;;;16.30;99.90;;;;;;4975554;28;20229;-80
2023/09/19 00:52:26;;;;;;;10.20;9.60;;;16.20;99.90;;;;;;4976594;28;20190;-80
2023/09/19 00:54:53;;;;;;;10.40;9.70;;;16.30;99.90;;;;;;4974687;28;20211;-80
2023/09/19 00:57:22;;;;;;;11.03;10.37;;;16.30;99.90;;;;;;4974865;28;20206;-80
2023/09/19 00:59:54;;;;;;;10.00;9.40;;;16.30;99.90;;;;;;4974682;28;20311;-81
2023/09/19 01:02:22;;;;;;;10.83;10.03;;;16.30;99.90;;;;;;4975036;28;20194;-81
2023/09/19 01:04:49;;;;;;;10.67;10.07;;;16.30;99.90;;;;;;4974427;28;20659;-81
2023/09/19 01:07:16;;;;;;;10.37;9.77;;;16.30;99.90;;;;;;4974808;28;20206;-81
2023/09/19 01:09:43;;;;;;;10.37;9.77;;;16.30;99.90;;;;;;4980267;28;20683;-80
2023/09/19 01:12:12;;;;;;;10.33;9.60;;;16.30;99.90;;;;;;4975856;28;20284;-80
2023/09/19 01:14:52;;;;;;;10.50;9.70;;;16.20;99.90;;;;;;4974307;28;20678;-81
2023/09/19 01:17:28;;;;;;;10.47;9.87;;;16.20;99.90;;;;;;4974309;28;20409;-80
2023/09/19 01:20:12;;;;;;;10.50;9.90;;;16.20;99.90;;;;;;4974212;28;20255;-81
2023/09/19 01:22:54;;;;;;;10.90;10.10;;;16.20;99.90;;;;;;4969784;28;20485;-81
2023/09/19 01:26:05;;;;;;;10.53;9.93;;;16.20;99.90;;;;;;4973888;28;20224;-82
2023/09/19 01:28:38;;;;;;;11.00;10.30;;;16.20;99.90;;;;;;4968491;28;20209;-80
2023/09/19 01:31:10;;;;;;;10.87;10.17;;;16.20;99.90;;;;;;4973994;28;20268;-80
2023/09/19 01:33:59;;;;;;;11.20;10.47;;;16.20;99.90;;;;;;4969383;28;20198;-81
2023/09/19 01:36:27;;;;;;;10.90;10.30;;;16.30;99.90;;;;;;4974361;28;20684;-80
2023/09/19 01:38:55;;;;;;;11.00;10.30;;;16.20;99.90;;;;;;4982104;28;20205;-81
2023/09/19 01:41:28;;;;;;;11.00;10.20;;;16.20;99.90;;;;;;4975904;28;20275;-81
2023/09/19 01:43:56;;;;;;;10.83;10.23;;;16.20;99.90;;;;;;4974022;28;20209;-80
2023/09/19 01:46:29;;;;;;;11.10;10.50;;;16.20;99.90;;;;;;4974194;28;20223;-80
2023/09/19 01:49:06;;;;;;;11.30;10.60;;;16.20;99.90;;;;;;4980979;28;20205;-80
2023/09/19 01:51:38;;;;;;;10.70;10.07;;;16.20;99.90;;;;;;4990239;28;20237;-80
2023/09/19 01:54:12;;;;;;;11.70;10.90;;;16.20;99.90;;;;;;4979124;28;20206;-80
2023/09/19 01:56:44;;;;;;;11.10;10.40;;;16.30;99.90;;;;;;4989995;28;20201;-81
2023/09/19 01:59:14;;;;;;;10.73;10.13;;;16.30;99.90;;;;;;4974137;28;20246;-80
2023/09/19 02:01:45;;;;;;;11.30;10.70;;;16.20;99.90;;;;;;4974234;28;20206;-80
2023/09/19 02:04:12;;;;;;;10.47;9.87;;;16.20;99.90;;;;;;4972908;28;20683;-80
2023/09/19 02:06:42;;;;;;;10.73;10.03;;;16.20;99.90;;;;;;4973629;28;20214;-81
2023/09/19 02:09:08;;;;;;;10.67;10.00;;;16.20;99.90;;;;;;4981523;28;20274;-79
2023/09/19 02:11:36;;;;;;;10.50;9.90;;;16.20;99.90;;;;;;4973887;28;20690;-80
2023/09/19 02:14:04;;;;;;;11.60;10.90;;;16.20;99.90;;;;;;4973345;28;20233;-81
2023/09/19 02:16:31;;;;;;;11.20;10.50;;;16.20;99.90;;;;;;4973584;28;20194;-81
2023/09/19 02:19:00;;;;;;;11.23;10.53;;;16.10;99.90;;;;;;4973020;28;20209;-82
2023/09/19 02:21:29;;;;;;;11.50;10.73;;;16.10;99.90;;;;;;4973945;28;20193;-80
2023/09/19 02:23:56;;;;;;;10.70;10.10;;;16.10;99.90;;;;;;4973405;28;20205;-79
2023/09/19 02:26:24;;;;;;;10.83;10.07;;;16.00;99.90;;;;;;4966558;28;20221;-80
2023/09/19 02:28:52;;;;;;;10.90;10.20;;;15.90;99.90;;;;;;4973320;28;20260;-80
2023/09/19 02:31:19;;;;;;;12.27;11.47;;;15.90;99.90;;;;;;4972999;28;20207;-80
2023/09/19 02:33:46;;;;;;;10.87;10.17;;;15.90;99.90;;;;;;4981249;28;20615;-81
2023/09/19 02:36:16;;;;;;;11.03;10.33;;;15.90;99.90;;;;;;4974287;28;20205;-82
2023/09/19 02:38:44;;;;;;;10.87;10.17;;;15.80;99.90;;;;;;4980243;28;20264;-80
2023/09/19 02:41:11;;;;;;;11.87;10.97;;;15.80;99.90;;;;;;4970159;28;20205;-80
2023/09/19 02:43:38;;;;;;;10.60;9.97;;;15.70;99.90;;;;;;4973015;28;20284;-80
2023/09/19 02:46:05;;;;;;;11.13;10.27;;;15.70;99.90;;;;;;4972334;28;20580;-80
2023/09/19 02:48:34;;;;;;;10.90;10.20;;;15.60;99.90;;;;;;4973967;28;20199;-80
2023/09/19 02:51:01;;;;;;;10.80;10.20;;;15.60;99.90;;;;;;4969701;28;20207;-81
2023/09/19 02:53:30;;;;;;;10.80;10.10;;;15.50;99.90;;;;;;4970284;28;20203;-81
2023/09/19 02:55:58;;;;;;;11.00;10.40;;;15.50;99.90;;;;;;4970126;28;20228;-80
2023/09/19 02:58:27;;;;;;;11.10;10.50;;;15.40;99.90;;;;;;4974849;28;20572;-80
2023/09/19 03:00:55;;;;;;;11.97;11.37;;;15.40;99.90;;;;;;4971263;28;20758;-80
2023/09/19 03:03:22;;;;;;;11.37;10.67;;;15.40;99.90;;;;;;4966451;28;20204;-80
2023/09/19 03:05:51;;;;;;;11.10;10.40;;;15.40;99.90;;;;;;4972422;28;20761;-80
2023/09/19 03:08:18;;;;;;;11.10;10.50;;;15.30;99.90;;;;;;4972449;28;20215;-80
2023/09/19 03:10:49;;;;;;;10.90;10.20;;;15.40;99.90;;;;;;4971066;28;20741;-80
2023/09/19 03:13:17;;;;;;;10.67;10.07;;;15.40;99.90;;;;;;4974321;28;20204;-80
2023/09/19 03:15:46;;;;;;;10.80;10.20;;;15.40;99.90;;;;;;4971518;28;20212;-81
2023/09/19 03:18:13;;;;;;;10.77;10.17;;;15.40;99.90;;;;;;4973201;28;20205;-80
2023/09/19 03:20:40;;;;;;;11.70;11.00;;;15.50;99.90;;;;;;4973200;28;20827;-81
2023/09/19 03:23:08;;;;;;;11.63;11.03;;;15.50;99.90;;;;;;4972376;28;20197;-80
2023/09/19 03:25:36;;;;;;;11.47;10.87;;;15.60;99.90;;;;;;4972400;28;20243;-80
2023/09/19 03:28:06;;;;;;;11.60;10.90;;;15.60;99.90;;;;;;4972297;28;20291;-80
2023/09/19 03:30:34;;;;;;;12.37;11.57;;;15.60;99.90;;;;;;4974133;28;20219;-81
2023/09/19 03:33:04;;;;;;;10.97;10.37;;;15.60;99.90;;;;;;4967838;28;20291;-80
2023/09/19 03:35:32;;;;;;;11.63;10.93;;;15.60;99.90;;;;;;4976518;28;20196;-81
2023/09/19 03:37:59;;;;;;;11.40;10.80;;;15.70;99.90;;;;;;4977032;28;20254;-81
2023/09/19 03:40:26;;;;;;;11.40;10.70;;;15.70;99.90;;;;;;4981429;28;20219;-79
2023/09/19 03:42:53;;;;;;;11.67;11.00;;;15.70;99.90;;;;;;4972970;28;20284;-79
2023/09/19 03:45:21;;;;;;;11.97;11.37;;;15.80;99.90;;;;;;4972474;28;20311;-79
2023/09/19 03:47:51;;;;;;;11.30;10.70;;;15.80;99.90;;;;;;4973360;28;20205;-84
2023/09/19 03:50:21;;;;;;;12.40;11.70;;;15.80;99.90;;;;;;4972317;28;20227;-79
2023/09/19 03:52:48;;;;;;;12.00;11.30;;;15.90;99.90;;;;;;4976800;28;20671;-76
2023/09/19 03:55:15;;;;;;;11.90;11.27;;;15.80;99.90;;;;;;4984041;28;20212;-76
2023/09/19 03:57:42;;;;;;;11.90;11.20;;;15.90;99.90;;;;;;4981078;28;20200;-77
2023/09/19 04:00:11;;;;;;;11.50;10.80;;;15.90;99.90;;;;;;4978445;28;20807;-76
2023/09/19 04:02:42;;;;;;;11.20;10.57;;;15.90;99.90;;;;;;4980682;28;20703;-76
2023/09/19 04:05:11;;;;;;;10.97;10.30;;;15.90;99.90;;;;;;4978251;28;20213;-76
2023/09/19 04:07:38;;;;;;;10.70;10.10;;;15.90;99.90;;;;;;4975744;28;20201;-76
2023/09/19 04:10:06;;;;;;;10.50;9.90;;;15.80;99.90;;;;;;4975583;28;20217;-76
2023/09/19 04:12:33;;;;;;;12.03;11.33;;;15.80;99.90;;;;;;4983971;28;20612;-76
2023/09/19 04:14:59;;;;;;;11.70;11.00;;;15.80;99.90;;;;;;4978291;28;20252;-76
2023/09/19 04:17:26;;;;;;;11.83;11.03;;;15.80;99.90;;;;;;4977324;28;20200;-78
2023/09/19 04:19:54;;;;;;;11.60;11.00;;;15.80;99.90;;;;;;4976452;28;20590;-77
2023/09/19 04:22:21;;;;;;;11.30;10.70;;;15.80;99.90;;;;;;4976857;28;20216;-78
2023/09/19 04:24:48;;;;;;;11.47;10.87;;;15.80;99.90;;;;;;4979275;28;20203;-77
2023/09/19 04:27:15;;;;;;;11.90;11.20;;;15.70;99.90;;;;;;4976376;28;20231;-77
2023/09/19 04:29:42;;;;;;;11.70;11.10;;;15.70;99.90;;;;;;4977140;28;20280;-77
2023/09/19 04:32:09;;;;;;;11.90;11.20;;;15.60;99.90;;;;;;4977310;28;20206;-77
2023/09/19 04:34:36;;;;;;;11.93;11.33;;;15.60;99.90;;;;;;4977667;28;20586;-77
2023/09/19 04:37:04;;;;;;;12.43;11.73;;;15.60;99.90;;;;;;4978981;28;20577;-77
2023/09/19 04:39:31;;;;;;;12.20;11.50;;;15.50;99.90;;;;;;4980040;28;20214;-76
2023/09/19 04:41:59;;;;;;;12.70;11.90;;;15.50;99.90;;;;;;4979265;28;20224;-77
2023/09/19 04:44:26;;;;;;;12.50;11.80;;;15.40;99.90;;;;;;4978733;28;20199;-76
2023/09/19 04:46:53;;;;;;;12.30;11.50;;;15.40;99.90;;;;;;4979668;28;20699;-77
2023/09/19 04:49:19;;;;;;;13.47;12.67;;;15.30;99.90;;;;;;4979044;28;20229;-76
2023/09/19 04:51:46;;;;;;;13.27;12.50;;;15.20;99.90;;;;;;4986634;28;20236;-76
2023/09/19 04:54:15;;;;;;;12.57;11.87;;;15.20;99.90;;;;;;4977946;28;20681;-76
2023/09/19 04:56:42;;;;;;;13.03;12.33;;;15.20;99.90;;;;;;4972972;28;20204;-79
2023/09/19 04:59:10;;;;;;;13.60;12.80;;;15.20;99.90;;;;;;4976681;28;20243;-80
2023/09/19 05:01:37;;;;;;;13.43;12.63;;;15.20;99.90;;;;;;4983487;28;20231;-81
2023/09/19 05:04:04;;;;;;;13.67;12.87;;;15.20;99.90;;;;;;4975591;28;20263;-82
2023/09/19 05:06:31;;;;;;;13.77;12.90;;;15.30;99.90;;;;;;4974711;28;20252;-81
2023/09/19 05:08:58;;;;;;;13.30;12.50;;;15.30;99.90;;;;;;4981035;28;20225;-81
2023/09/19 05:11:26;;;;;;;13.30;12.60;;;15.40;99.90;;;;;;4977084;28;20577;-80
2023/09/19 05:13:53;;;;;;;13.50;12.70;;;15.40;99.90;;;;;;4975663;28;20247;-81
2023/09/19 05:16:20;;;;;;;13.60;12.80;;;15.40;99.90;;;;;;4974939;28;20212;-82
2023/09/19 05:18:47;;;;;;;13.30;12.50;;;15.50;99.90;;;;;;4976419;28;20211;-82
2023/09/19 05:21:14;;;;;;;13.10;12.30;;;15.50;99.90;;;;;;4976889;28;20743;-82
2023/09/19 05:23:42;;;;;;;12.50;11.80;;;15.60;99.90;;;;;;4990284;28;20208;-81
2023/09/19 05:26:10;;;;;;;13.10;12.40;;;15.60;99.90;;;;;;4971697;28;20230;-81
2023/09/19 05:28:38;;;;;;;12.07;11.47;;;15.70;99.90;;;;;;4974735;28;20211;-82
2023/09/19 05:31:05;;;;;;;12.00;11.40;;;15.80;99.90;;;;;;4975488;28;20229;-81
2023/09/19 05:33:32;;;;;;;12.47;11.77;;;15.90;99.90;;;;;;4976378;28;20733;-81
2023/09/19 05:35:59;;;;;;;12.27;11.57;;;15.90;99.90;;;;;;4974848;28;20194;-82
2023/09/19 05:38:27;;;;;;;12.20;11.60;;;16.00;99.90;;;;;;4976553;28;20196;-81
2023/09/19 05:40:54;;;;;;;11.97;11.37;;;16.00;99.90;;;;;;4974924;28;20328;-82
2023/09/19 05:43:21;;;;;;;11.90;11.30;;;16.10;99.90;;;;;;4976783;28;20687;-80
2023/09/19 05:45:52;;;;;;;11.83;11.23;;;16.10;99.90;;;;;;4974855;28;20205;-81
2023/09/19 05:48:20;;;;;;;12.10;11.40;;;16.20;99.90;;;;;;4984906;28;20207;-81
2023/09/19 05:50:48;;;;;;;11.93;11.33;;;16.20;99.90;;;;;;4996171;28;20282;-81
2023/09/19 05:53:15;;;;;;;12.07;11.37;;;16.20;99.90;;;;;;4990371;28;20204;-79
2023/09/19 05:55:42;;;;;;;12.00;11.40;;;16.30;99.90;;;;;;4980833;28;20242;-81
2023/09/19 05:58:09;;;;;;;11.77;11.00;;;16.30;99.90;;;;;;4974431;28;20210;-81
2023/09/19 06:00:36;;;;;;;11.57;10.97;;;16.40;99.90;;;;;;4976155;28;20232;-80
2023/09/19 06:03:05;;;;;;;11.60;10.93;;;16.30;99.90;;;;;;4983215;28;20270;-78
2023/09/19 06:05:32;;;;;;;11.97;11.27;;;16.30;99.90;;;;;;4976897;28;20225;-80
2023/09/19 06:08:00;;;;;;;12.17;11.47;;;16.40;99.90;;;;;;4975189;28;20229;-80
2023/09/19 06:10:27;;;;;;;12.17;11.47;;;16.40;99.90;;;;;;4971064;28;20308;-77
2023/09/19 06:12:55;;;;;;;12.50;11.80;;;16.50;99.90;;;;;;4976728;28;20202;-76
2023/09/19 06:15:24;;;;;;;12.10;11.40;;;16.50;99.90;;;;;;4976251;28;20653;-76
2023/09/19 06:17:54;;;;;;;11.60;11.00;;;16.70;99.90;;;;;;4973785;28;20197;-77
2023/09/19 06:20:23;;;;;;;12.07;11.37;;;16.70;99.90;;;;;;4972336;28;20305;-79
2023/09/19 06:22:51;;;;;;;11.73;11.00;;;16.70;99.90;;;;;;4975639;28;20209;-80
2023/09/19 06:25:20;;;;;;;11.50;10.90;;;16.70;99.90;;;;;;4975611;28;20198;-79
2023/09/19 06:27:47;;;;;;;11.77;11.07;;;16.60;99.90;;;;;;4975380;28;20231;-77
2023/09/19 06:30:14;;;;;;;11.90;11.20;;;16.60;99.90;;;;;;4975264;28;20218;-76
2023/09/19 06:32:43;;;;;;;11.37;10.57;;;16.60;99.90;;;;;;4978972;28;20193;-77
2023/09/19 06:35:11;;;;;;;11.70;11.00;;;16.60;99.90;;;;;;4993554;28;20735;-78
2023/09/19 06:37:40;;;;;;;11.90;11.30;;;16.70;99.90;;;;;;4987157;28;20201;-77
2023/09/19 06:40:09;;;;;;;12.20;11.50;;;16.70;99.90;;;;;;4973523;28;20605;-78
2023/09/19 06:42:37;;;;;;;11.90;11.20;;;16.70;99.90;;;;;;4980568;28;20229;-79
2023/09/19 06:45:06;;;;;;;11.40;10.80;;;16.80;99.90;;;;;;4991128;28;20232;-80
2023/09/19 06:47:33;;;;;;;11.47;10.67;;;16.90;99.90;;;;;;4977287;28;20317;-80
2023/09/19 06:50:02;;;;;;;11.57;10.97;;;17.10;99.90;;;;;;4980793;28;20726;-76
2023/09/19 06:52:29;;;;;;;11.27;10.57;;;17.20;99.90;;;;;;4988198;28;20206;-77
2023/09/19 06:54:57;;;;;;;11.13;10.43;;;17.20;99.90;;;;;;4984212;28;20213;-76
2023/09/19 06:57:24;;;;;;;11.57;10.83;;;17.20;99.90;;;;;;4980802;28;20198;-78
2023/09/19 06:59:51;;;;;;;11.03;10.43;;;17.30;99.90;;;;;;4978536;28;20256;-79
2023/09/19 07:02:18;;;;;;;8.30;7.80;;;17.30;99.90;;;;;;4982838;28;20224;-82
2023/09/19 07:04:45;;;;;;;10.57;9.87;;;17.40;99.90;;;;;;4983453;28;20213;-79
2023/09/19 07:07:12;;;;;;;7.70;7.27;;;17.60;99.90;;;;;;4986688;28;20205;-79
2023/09/19 07:09:39;;;;;;;3.80;3.47;;;17.80;99.90;;;;;;4987304;28;20272;-78
2023/09/19 07:12:08;;;;;;;5.77;5.37;;;17.90;99.90;;;;;;4980255;28;20197;-80
2023/09/19 07:14:34;;;;;;;10.37;9.77;;;18.00;99.90;;;;;;4990730;28;20202;-79
2023/09/19 07:17:03;;;;;;;9.60;9.00;;;18.10;99.90;;;;;;4982820;28;20203;-78
2023/09/19 07:19:31;;;;;;;7.33;6.83;;;18.30;99.90;;;;;;4976009;28;20238;-79
2023/09/19 07:21:59;;;;;;;9.37;8.67;;;18.50;99.90;;;;;;4991382;28;20681;-80
2023/09/19 07:24:28;;;;;;;9.10;8.50;;;18.90;99.90;;;;;;4984688;28;20314;-80
2023/09/19 07:26:55;;;;;;;7.53;7.03;;;19.10;99.90;;;;;;4989701;28;20226;-80
2023/09/19 07:29:23;;;;;;;9.83;9.13;;;19.50;99.90;;;;;;4977770;28;20229;-80
2023/09/19 07:31:50;;;;;;;10.33;9.73;;;19.80;99.90;;;;;;4977896;28;20687;-80
2023/09/19 07:34:18;;;;;;;9.20;8.60;;;20.20;99.90;;;;;;4977883;28;20202;-79
2023/09/19 07:36:44;;;;;;;8.63;8.03;;;20.50;99.90;;;;;;4989305;28;20201;-79
2023/09/19 07:39:11;;;;;;;6.03;5.53;;;20.70;99.90;;;;;;4988762;28;20228;-80
2023/09/19 07:41:38;;;;;;;9.23;8.73;;;20.70;99.90;;;;;;4990801;28;20201;-80
2023/09/19 07:44:05;;;;;;;6.70;6.30;;;20.90;99.90;;;;;;4976862;28;20216;-80
2023/09/19 07:46:33;;;;;;;10.23;9.40;;;21.20;99.90;;;;;;4988043;28;20231;-80
2023/09/19 07:49:00;;;;;;;3.73;3.43;;;21.30;99.90;;;;;;4987794;28;20221;-80
2023/09/19 07:51:27;;;;;;;8.10;7.60;;;21.50;99.90;;;;;;4984092;28;20481;-79
2023/09/19 07:53:54;;;;;;;7.33;6.93;;;21.60;99.90;;;;;;4983081;28;20256;-80
2023/09/19 07:56:22;;;;;;;9.70;9.00;;;21.60;99.90;;;;;;4990005;28;20248;-80
2023/09/19 07:58:49;;;;;;;9.50;9.00;;;21.60;99.90;;;;;;4980393;28;20202;-81
2023/09/19 08:01:16;;;;;;;3.10;2.90;;;21.60;99.90;;;;;;4989152;28;20251;-80
2023/09/19 08:03:45;;;;;;;4.77;4.23;;;21.70;99.90;;;;;;4987956;28;20197;-81
2023/09/19 08:06:14;;;;;;;3.00;2.50;;;21.60;99.90;;;;;;4974763;28;20197;-79
2023/09/19 08:08:41;;;;;;;2.30;2.20;;;21.30;99.90;;;;;;4982598;28;20260;-80
2023/09/19 08:11:11;;;;;;;2.67;2.57;;;21.20;99.90;;;;;;4994364;28;20225;-80
2023/09/19 08:13:41;;;;;;;7.50;7.10;;;21.00;99.90;;;;;;4980726;28;20213;-78
2023/09/19 08:16:08;;;;;;;7.60;7.10;;;20.70;99.90;;;;;;4984726;28;20198;-78
2023/09/19 08:18:34;;;;;;;6.87;6.37;;;20.60;99.90;;;;;;4976949;28;20878;-78
2023/09/19 08:21:03;;;;;;;6.50;6.10;;;20.50;99.90;;;;;;4986493;28;20252;-78
2023/09/19 08:23:32;;;;;;;4.00;3.80;;;20.40;99.90;;;;;;4981863;28;20570;-80
2023/09/19 08:26:33;;;;;;;2.90;2.60;;;20.30;99.90;;;;;;4996914;28;20292;-84
2023/09/19 08:29:04;;;;;;;2.43;2.30;;;20.10;99.90;;;;;;4968215;28;20766;-82
2023/09/19 08:31:50;;;;;;;2.43;2.23;;;20.10;99.90;;;;;;4979515;28;20553;-82
2023/09/19 08:34:21;;;;;;;2.43;2.27;;;20.10;99.90;;;;;;4993191;28;20532;-83
2023/09/19 08:36:52;;;;;;;2.50;2.30;;;20.10;99.90;;;;;;4980918;28;20197;-83
2023/09/19 08:39:19;;;;;;;2.90;2.30;;;20.10;99.90;;;;;;4978819;28;20224;-82
2023/09/19 08:41:46;;;;;;;2.37;2.23;;;20.00;99.90;;;;;;4997353;28;20215;-81
2023/09/19 08:44:14;;;;;;;2.97;2.70;;;20.00;99.90;;;;;;4990459;28;20197;-82
2023/09/19 08:46:43;;;;;;;3.17;2.97;;;20.00;99.90;;;;;;4983985;28;20190;-82
2023/09/19 08:49:22;;;;;;;3.37;3.13;;;20.10;99.90;;;;;;4988765;28;20243;-81
2023/09/19 08:51:58;;;;;;;4.73;4.33;;;20.20;99.90;;;;;;4987715;28;20772;-81
2023/09/19 08:54:29;;;;;;;4.10;3.90;;;20.50;99.90;;;;;;4979845;28;20213;-81
2023/09/19 08:56:59;;;;;;;4.90;4.50;;;21.10;99.90;;;;;;4973731;28;20226;-82
2023/09/19 08:59:28;;;;;;;5.60;5.20;;;21.70;99.90;;;;;;4971375;28;20232;-79
2023/09/19 09:01:56;;;;;;;3.07;2.87;;;22.30;99.90;;;;;;4989128;28;20230;-82
2023/09/19 09:04:25;;;;;;;2.30;2.20;;;22.70;99.90;;;;;;4986527;28;20221;-80
2023/09/19 09:06:55;;;;;;;4.10;3.80;;;23.00;99.90;;;;;;4981762;28;20625;-79
2023/09/19 09:09:22;;;;;;;2.43;2.23;;;23.20;99.90;;;;;;4987983;28;20614;-78
2023/09/19 09:11:52;;;;;;;7.00;6.40;;;23.40;99.90;;;;;;4976813;28;20214;-79
2023/09/19 09:14:21;;;;;;;6.60;6.20;;;23.60;99.90;;;;;;4978002;28;20213;-78
2023/09/19 09:16:48;;;;;;;9.53;8.83;;;23.90;99.90;;;;;;4983025;28;20202;-83
2023/09/19 09:19:23;;;;;;;2.40;2.20;;;24.00;99.90;;;;;;4981334;28;20269;-80
2023/09/19 09:21:51;;;;;;;8.00;7.50;;;23.80;99.90;;;;;;4980994;28;20224;-78
2023/09/19 09:24:30;;;;;;;9.23;8.53;;;23.60;99.90;;;;;;4978149;28;20292;-78
2023/09/19 09:26:57;;;;;;;7.93;7.33;;;23.40;99.90;;;;;;4981101;28;20198;-77
2023/09/19 09:29:43;;;;;;;8.67;7.67;;;23.20;99.90;;;;;;4978048;28;20598;-78
2023/09/19 09:32:21;;;;;;;9.40;8.80;;;23.40;99.90;;;;;;4965043;28;20293;-77
2023/09/19 09:34:50;;;;;;;8.40;7.80;;;23.50;99.90;;;;;;4974406;28;20206;-77
2023/09/19 09:37:19;;;;;;;9.17;8.57;;;23.60;99.90;;;;;;4981159;28;20189;-78
2023/09/19 09:39:56;;;;;;;8.20;7.70;;;23.70;99.90;;;;;;4983141;28;20276;-79
2023/09/19 09:42:35;;;;;;;8.77;8.10;;;23.80;99.90;;;;;;4986719;28;20220;-80
2023/09/19 09:45:28;;;;;;;8.53;7.90;;;23.60;99.90;;;;;;4977231;28;20559;-80
2023/09/19 09:47:55;;;;;;;8.53;7.93;;;23.40;99.90;;;;;;4972093;28;20236;-79
2023/09/19 09:50:29;;;;;;;7.80;7.30;;;23.20;99.90;;;;;;4972532;28;20249;-79
2023/09/19 09:53:06;;;;;;;6.73;6.33;;;23.30;99.90;;;;;;4974529;28;20198;-79
2023/09/19 09:55:59;;;;;;;8.23;7.60;;;23.20;99.90;;;;;;4972391;28;20238;-79
2023/09/19 09:58:29;;;;;;;8.27;7.77;;;22.80;99.90;;;;;;4984873;28;20536;-80
2023/09/19 10:01:01;;;;;;;8.33;7.73;;;22.70;99.90;;;;;;4979905;28;20255;-80
2023/09/19 10:03:39;;;;;;;2.30;2.10;;;22.50;99.90;;;;;;4981345;28;20507;-80
2023/09/19 10:06:24;;;;;;;3.53;3.27;;;22.30;99.90;;;;;;4965236;28;20204;-80
2023/09/19 10:09:10;;;;;;;2.83;2.23;;;22.30;99.90;;;;;;4986931;28;20213;-79
2023/09/19 10:11:54;;;;;;;7.03;6.63;;;22.40;99.90;;;;;;4979595;28;20206;-76
2023/09/19 10:14:25;;;;;;;6.97;6.57;;;22.50;99.90;;;;;;4964625;28;20205;-80
2023/09/19 10:17:00;;;;;;;5.67;5.30;;;22.60;99.90;;;;;;4975927;28;20212;-80
2023/09/19 10:19:33;;;;;;;6.00;5.50;;;22.60;99.90;;;;;;4987561;28;20228;-80
2023/09/19 10:22:02;;;;;;;6.70;6.10;;;22.60;99.90;;;;;;4986330;28;20205;-80
2023/09/19 10:24:31;;;;;;;6.20;5.70;;;22.60;99.90;;;;;;4981863;28;20289;-79
2023/09/19 10:27:03;;;;;;;5.63;5.23;;;22.80;99.90;;;;;;4975718;28;20253;-79
2023/09/19 10:29:35;;;;;;;7.80;7.27;;;22.90;99.90;;;;;;4974728;28;20218;-81
2023/09/19 10:32:05;;;;;;;7.77;7.27;;;23.10;99.90;;;;;;4972440;28;20209;-79
2023/09/19 10:34:36;;;;;;;8.10;7.60;;;23.30;99.90;;;;;;4976336;28;20197;-79
2023/09/19 10:37:05;;;;;;;8.00;7.50;;;23.30;99.90;;;;;;4980264;28;20197;-79
2023/09/19 10:39:33;;;;;;;8.87;8.27;;;23.30;99.90;;;;;;4991982;28;20236;-79
2023/09/19 10:42:05;;;;;;;7.77;7.37;;;23.50;99.90;;;;;;4979892;28;20202;-79
2023/09/19 10:44:34;;;;;;;8.07;7.57;;;23.40;99.90;;;;;;4988322;28;20202;-79
2023/09/19 10:47:00;;;;;;;8.07;7.50;;;23.20;99.90;;;;;;4983519;28;20209;-80
2023/09/19 10:49:27;;;;;;;8.07;7.57;;;23.20;99.90;;;;;;4988015;28;20227;-78
2023/09/19 10:51:59;;;;;;;8.00;7.50;;;23.10;99.90;;;;;;4989200;28;20576;-80
2023/09/19 10:54:32;;;;;;;7.60;7.10;;;23.10;99.90;;;;;;4982751;28;20193;-78
2023/09/19 10:57:05;;;;;;;8.80;8.00;;;23.30;99.90;;;;;;4989453;28;20206;-80
2023/09/19 10:59:34;;;;;;;9.03;8.30;;;23.30;99.90;;;;;;4987041;28;20213;-79
2023/09/19 11:02:17;;;;;;;7.67;7.17;;;23.20;99.90;;;;;;4988410;28;20280;-80
2023/09/19 11:04:47;;;;;;;7.67;7.17;;;23.20;99.90;;;;;;4980498;28;20201;-79
2023/09/19 11:07:15;;;;;;;7.20;6.80;;;23.40;99.90;;;;;;4983152;28;20208;-78
2023/09/19 11:09:47;;;;;;;7.17;6.57;;;23.40;99.90;;;;;;4992332;28;20283;-78
2023/09/19 11:12:50;;;;;;;7.40;7.00;;;23.50;99.90;;;;;;4978743;28;20217;-79
2023/09/19 11:15:50;;;;;;;7.93;7.33;;;23.70;99.90;;;;;;4969401;28;20285;-79
2023/09/19 11:18:52;;;;;;;8.40;7.70;;;23.80;99.90;;;;;;4957464;28;20198;-78
2023/09/19 11:21:55;;;;;;;8.23;7.73;;;23.70;99.90;;;;;;4964762;28;20211;-79
2023/09/19 11:24:31;;;;;;;7.70;7.30;;;23.40;99.90;;;;;;4961214;28;20281;-78
2023/09/19 11:27:13;;;;;;;8.00;7.33;;;23.30;99.90;;;;;;4972053;28;20198;-79
2023/09/19 11:29:41;;;;;;;8.03;7.53;;;22.90;99.90;;;;;;4980220;28;20688;-80
2023/09/19 11:32:09;;;;;;;7.97;7.37;;;22.60;99.90;;;;;;4973162;28;20194;-80
2023/09/19 11:34:46;;;;;;;7.97;7.47;;;22.70;99.90;;;;;;4977327;28;20204;-79
2023/09/19 11:38:15;;;;;;;7.60;7.00;;;22.70;99.90;;;;;;4971606;28;20197;-79
2023/09/19 11:40:55;;;;;;;7.43;6.93;;;22.70;99.90;;;;;;4959303;28;20230;-79
2023/09/19 11:43:35;;;;;;;8.20;7.60;;;22.60;99.90;;;;;;4970669;28;20249;-81
2023/09/19 11:46:07;;;;;;;7.83;7.30;;;22.40;99.90;;;;;;4976417;28;20210;-82
2023/09/19 11:48:37;;;;;;;7.20;6.57;;;22.40;99.90;;;;;;4975078;28;20213;-79
2023/09/19 11:51:19;;;;;;;3.20;2.90;;;22.30;99.90;;;;;;4974222;28;20284;-79
2023/09/19 11:53:48;;;;;;;3.53;3.30;;;22.10;99.90;;;;;;4974300;28;20202;-79
2023/09/19 11:56:17;;;;;;;3.63;3.20;;;22.10;99.90;;;;;;4973849;28;20194;-79
2023/09/19 11:58:45;;;;;;;4.27;3.87;;;22.20;99.90;;;;;;4973197;28;20198;-78
2023/09/19 12:01:20;;;;;;;3.40;3.20;;;22.40;99.90;;;;;;4972931;28;20257;-79
2023/09/19 12:03:50;;;;;;;3.73;3.43;;;22.50;99.90;;;;;;4975332;28;20205;-80
2023/09/19 12:06:17;;;;;;;3.40;3.20;;;22.50;99.90;;;;;;4981939;28;20411;-80
2023/09/19 12:08:47;;;;;;;3.57;3.13;;;22.40;99.90;;;;;;4964578;28;20647;-79
2023/09/19 12:11:18;;;;;;;3.07;2.87;;;22.30;99.90;;;;;;4970978;28;20490;-80
2023/09/19 12:13:48;;;;;;;2.77;2.60;;;22.20;99.90;;;;;;4975178;28;20194;-78
2023/09/19 12:16:21;;;;;;;3.13;2.93;;;22.10;99.90;;;;;;4975888;28;20208;-81
2023/09/19 12:18:50;;;;;;;6.70;6.30;;;21.90;99.90;;;;;;4977270;28;20206;-80
2023/09/19 12:21:31;;;;;;;3.73;2.10;;;21.80;99.90;;;;;;4976941;28;20206;-80
2023/09/19 12:24:05;;;;;;;2.20;2.10;;;21.60;99.90;;;;;;4977585;28;20281;-80
2023/09/19 12:26:41;;;;;;;4.00;3.70;;;21.70;99.90;;;;;;4983001;28;20632;-81
2023/09/19 12:29:15;;;;;;;2.37;2.10;;;21.70;99.90;;;;;;4978364;28;20300;-82
2023/09/19 12:31:51;;;;;;;2.33;2.20;;;21.90;99.90;;;;;;4976579;28;20198;-81
2023/09/19 12:34:22;;;;;;;2.93;2.50;;;22.00;99.90;;;;;;4978480;28;20284;-81
2023/09/19 12:36:49;;;;;;;2.23;2.13;;;22.00;99.90;;;;;;4976435;28;20201;-81
2023/09/19 12:39:26;;;;;;;3.73;2.40;;;22.10;99.90;;;;;;4976609;28;20224;-81
2023/09/19 12:41:54;;;;;;;2.50;2.20;;;22.10;99.90;;;;;;4976508;28;20205;-81
2023/09/19 12:44:24;;;;;;;2.30;2.10;;;22.10;99.90;;;;;;4968581;28;20190;-80
2023/09/19 12:46:54;;;;;;;2.50;2.30;;;22.10;99.90;;;;;;4970976;28;20202;-81
2023/09/19 12:49:22;;;;;;;2.33;2.13;;;22.20;99.90;;;;;;4972295;28;20252;-81
2023/09/19 12:51:49;;;;;;;2.50;2.30;;;22.20;99.90;;;;;;4981724;28;20273;-82
2023/09/19 12:54:16;;;;;;;3.17;2.07;;;22.30;99.90;;;;;;4977454;28;20198;-80